Time;durP1;ratioP1;P1;durP2;ratioP2;P2;SDS_P1;SDS_P2;PMS_P1;PMS_P2;Temp;Humidity;BMP_temperature;BMP_pressure;BME280_temperature;BME280_humidity;BME280_pressure;Samples;Min_cycle;Max_cycle;Signal;HPM_P1;HPM_P2
2021/03/06 00:00:44;;;;;;;67.35;10.00;;;-2.00;1.00;;;;;;5132669;27;20604;-66
2021/03/06 00:03:11;;;;;;;65.75;9.23;;;-2.10;1.00;;;;;;5132279;27;20206;-66
2021/03/06 00:05:37;;;;;;;66.18;10.48;;;-2.10;1.00;;;;;;5132581;27;20207;-66
2021/03/06 00:08:04;;;;;;;65.00;9.70;;;-2.10;1.00;;;;;;5132731;27;20237;-66
2021/03/06 00:10:30;;;;;;;69.38;11.25;;;-2.10;1.00;;;;;;5132531;27;20638;-66
2021/03/06 00:12:57;;;;;;;67.68;11.75;;;-2.20;1.00;;;;;;5133137;27;20267;-66
2021/03/06 00:15:26;;;;;;;65.07;10.60;;;-2.20;1.00;;;;;;5132433;27;20605;-66
2021/03/06 00:17:52;;;;;;;65.35;10.18;;;-2.20;1.00;;;;;;5132525;27;20219;-66
2021/03/06 00:20:20;;;;;;;66.20;9.57;;;-2.20;1.00;;;;;;5132610;27;20259;-66
2021/03/06 00:22:47;;;;;;;63.35;9.98;;;-2.20;1.00;;;;;;5132399;27;20667;-66
2021/03/06 00:25:15;;;;;;;66.47;10.98;;;-2.20;1.00;;;;;;5132283;27;20386;-66
2021/03/06 00:27:42;;;;;;;64.93;10.65;;;-2.20;1.00;;;;;;5132325;27;20235;-66
2021/03/06 00:30:11;;;;;;;67.38;10.40;;;-2.30;1.00;;;;;;5132275;27;20290;-67
2021/03/06 00:32:37;;;;;;;67.10;10.57;;;-2.30;1.00;;;;;;5132147;27;20210;-66
2021/03/06 00:35:05;;;;;;;68.97;10.55;;;-2.30;1.00;;;;;;5132244;27;20273;-67
2021/03/06 00:37:33;;;;;;;64.78;10.05;;;-2.30;1.00;;;;;;5132333;27;20291;-67
2021/03/06 00:39:59;;;;;;;67.45;10.20;;;-2.30;1.00;;;;;;5132164;27;20199;-66
2021/03/06 00:42:25;;;;;;;67.28;9.88;;;-2.30;1.00;;;;;;5132176;27;20225;-67
2021/03/06 00:44:52;;;;;;;66.97;10.55;;;-2.40;1.00;;;;;;5132077;27;20210;-67
2021/03/06 00:47:19;;;;;;;67.35;9.05;;;-2.40;1.00;;;;;;5131989;27;20222;-67
2021/03/06 00:49:45;;;;;;;68.97;11.05;;;-2.40;1.00;;;;;;5130182;27;20195;-66
2021/03/06 00:52:12;;;;;;;66.03;10.80;;;-2.40;1.00;;;;;;5129421;27;20207;-67
2021/03/06 00:54:39;;;;;;;68.68;11.35;;;-2.40;1.00;;;;;;5131797;27;20290;-66
2021/03/06 00:57:06;;;;;;;66.57;11.02;;;-2.40;1.00;;;;;;5131867;27;20223;-67
2021/03/06 00:59:32;;;;;;;65.60;10.27;;;-2.50;1.00;;;;;;5131795;27;20228;-67
2021/03/06 01:01:59;;;;;;;64.20;9.70;;;-2.50;1.00;;;;;;5131707;27;20248;-66
2021/03/06 01:04:25;;;;;;;63.17;8.60;;;-2.50;1.00;;;;;;5132092;27;20557;-67
2021/03/06 01:06:51;;;;;;;64.90;9.75;;;-2.50;1.00;;;;;;5132027;27;20279;-67
2021/03/06 01:09:17;;;;;;;64.20;9.52;;;-2.50;1.00;;;;;;5131855;27;20199;-67
2021/03/06 01:11:45;;;;;;;64.55;10.30;;;-2.60;1.00;;;;;;5135089;27;20198;-66
2021/03/06 01:14:11;;;;;;;65.28;10.32;;;-2.60;1.00;;;;;;5135540;27;20431;-66
2021/03/06 01:16:37;;;;;;;71.53;10.85;;;-2.60;1.00;;;;;;5135557;27;20718;-66
2021/03/06 01:19:04;;;;;;;64.78;9.25;;;-2.70;1.00;;;;;;5135819;27;20652;-67
2021/03/06 01:21:30;;;;;;;66.53;9.60;;;-2.70;1.00;;;;;;5135953;27;20209;-66
2021/03/06 01:23:57;;;;;;;68.10;11.40;;;-2.70;1.00;;;;;;5135547;27;20551;-67
2021/03/06 01:26:23;;;;;;;65.57;9.45;;;-2.70;1.00;;;;;;5135299;27;20820;-67
2021/03/06 01:28:50;;;;;;;65.47;10.80;;;-2.80;1.00;;;;;;5135243;27;20290;-67
2021/03/06 01:31:16;;;;;;;62.08;8.30;;;-2.80;1.00;;;;;;5135669;27;20290;-67
2021/03/06 01:33:43;;;;;;;63.83;9.25;;;-2.80;1.00;;;;;;5135371;27;20230;-66
2021/03/06 01:36:09;;;;;;;64.85;9.93;;;-2.80;1.00;;;;;;5135223;27;20318;-67
2021/03/06 01:38:35;;;;;;;66.20;9.85;;;-2.90;1.00;;;;;;5135191;27;20219;-67
2021/03/06 01:41:02;;;;;;;64.22;9.38;;;-2.90;1.00;;;;;;5135239;27;20211;-66
2021/03/06 01:43:28;;;;;;;62.90;8.10;;;-2.90;1.00;;;;;;5135029;27;20213;-67
2021/03/06 01:45:55;;;;;;;64.70;10.00;;;-2.90;1.00;;;;;;5135326;27;20317;-67
2021/03/06 01:48:22;;;;;;;63.53;8.90;;;-3.00;1.00;;;;;;5135059;27;20285;-67
2021/03/06 01:50:50;;;;;;;64.68;9.55;;;-3.00;1.00;;;;;;5135203;27;20226;-66
2021/03/06 01:53:16;;;;;;;61.67;9.00;;;-3.00;1.00;;;;;;5134885;27;20730;-67
2021/03/06 01:55:45;;;;;;;67.55;9.65;;;-3.10;1.00;;;;;;5134363;27;20198;-66
2021/03/06 01:58:14;;;;;;;63.45;9.18;;;-3.10;1.00;;;;;;5135100;27;20313;-66
2021/03/06 02:00:41;;;;;;;70.88;10.38;;;-3.10;1.00;;;;;;5135098;27;20625;-66
2021/03/06 02:03:08;;;;;;;64.30;9.10;;;-3.10;1.00;;;;;;5134919;27;20292;-67
2021/03/06 02:05:35;;;;;;;65.30;10.20;;;-3.20;1.00;;;;;;5134666;27;20293;-67
2021/03/06 02:08:03;;;;;;;64.53;9.32;;;-3.20;1.00;;;;;;5134737;27;20245;-66
2021/03/06 02:10:32;;;;;;;66.32;9.57;;;-3.20;1.00;;;;;;5134612;27;20207;-66
2021/03/06 02:13:22;;;;;;;67.18;8.85;;;-3.20;1.00;;;;;;5134770;27;20214;-66
2021/03/06 02:15:54;;;;;;;63.70;10.07;;;-3.20;1.00;;;;;;5134544;27;20223;-67
2021/03/06 02:18:26;;;;;;;63.15;9.48;;;-3.20;1.00;;;;;;5134498;27;20215;-67
2021/03/06 02:21:00;;;;;;;64.95;9.57;;;-3.20;1.00;;;;;;5134525;27;20209;-67
2021/03/06 02:23:50;;;;;;;63.85;9.15;;;-3.30;1.00;;;;;;5133688;27;20230;-67
2021/03/06 02:26:43;;;;;;;67.25;9.68;;;-3.30;1.00;;;;;;5134417;27;20314;-66
2021/03/06 02:29:40;;;;;;;66.45;10.35;;;-3.30;1.00;;;;;;5126129;27;20222;-66
2021/03/06 02:32:15;;;;;;;65.40;10.02;;;-3.40;1.00;;;;;;5134110;27;20746;-66
2021/03/06 02:34:46;;;;;;;62.10;8.20;;;-3.40;1.00;;;;;;5129938;27;20279;-67
2021/03/06 02:37:14;;;;;;;62.30;9.07;;;-3.40;1.00;;;;;;5133972;27;20766;-67
2021/03/06 02:39:44;;;;;;;66.07;10.10;;;-3.50;1.00;;;;;;5130555;27;20244;-66
2021/03/06 02:42:18;;;;;;;65.05;9.48;;;-3.50;1.00;;;;;;5134147;27;20203;-67
2021/03/06 02:44:46;;;;;;;64.65;9.75;;;-3.50;1.00;;;;;;5134069;27;20222;-66
2021/03/06 02:47:13;;;;;;;65.30;10.68;;;-3.50;1.00;;;;;;5134210;27;20223;-67
2021/03/06 02:49:39;;;;;;;67.25;10.70;;;-3.60;1.00;;;;;;5131928;27;20247;-66
2021/03/06 02:52:06;;;;;;;65.10;10.25;;;-3.60;1.00;;;;;;5133482;27;20242;-66
2021/03/06 02:54:32;;;;;;;66.30;10.63;;;-3.60;1.00;;;;;;5133647;27;20202;-67
2021/03/06 02:56:58;;;;;;;64.80;10.00;;;-3.70;1.00;;;;;;5133747;27;20661;-66
2021/03/06 02:59:51;;;;;;;67.88;10.25;;;-3.60;1.00;;;;;;5133601;27;20223;-66
2021/03/06 03:02:25;;;;;;;67.43;10.85;;;-3.70;1.00;;;;;;5133393;27;20210;-66
2021/03/06 03:05:05;;;;;;;67.53;11.68;;;-3.70;1.00;;;;;;5133708;27;20207;-67
2021/03/06 03:07:40;;;;;;;69.47;11.00;;;-3.70;1.00;;;;;;5133562;27;20227;-67
2021/03/06 03:10:11;;;;;;;65.95;9.77;;;-3.80;1.00;;;;;;5133497;27;20704;-66
2021/03/06 03:12:43;;;;;;;65.78;10.02;;;-3.70;1.00;;;;;;5133420;27;20339;-66
2021/03/06 03:15:16;;;;;;;65.90;10.18;;;-3.80;1.00;;;;;;5133591;27;20293;-66
2021/03/06 03:17:45;;;;;;;65.25;9.63;;;-3.80;1.00;;;;;;5133428;27;20272;-66
2021/03/06 03:20:20;;;;;;;64.70;10.07;;;-3.80;1.00;;;;;;5133373;27;20215;-66
2021/03/06 03:22:50;;;;;;;68.07;10.95;;;-3.80;1.00;;;;;;5133763;27;20263;-66
2021/03/06 03:25:18;;;;;;;70.22;11.10;;;-3.90;1.00;;;;;;5133147;27;20678;-67
2021/03/06 03:27:46;;;;;;;68.35;11.05;;;-3.90;1.00;;;;;;5133325;27;20234;-66
2021/03/06 03:30:16;;;;;;;66.35;10.30;;;-3.90;1.00;;;;;;5133261;27;20211;-67
2021/03/06 03:32:46;;;;;;;69.95;10.57;;;-3.90;1.00;;;;;;5132927;27;20211;-66
2021/03/06 03:35:15;;;;;;;65.30;9.63;;;-3.90;1.00;;;;;;5132959;27;20210;-66
2021/03/06 03:37:42;;;;;;;64.90;9.70;;;-4.00;1.00;;;;;;5132893;27;20667;-67
2021/03/06 03:40:12;;;;;;;64.30;8.73;;;-4.00;1.00;;;;;;5133151;27;20202;-66
2021/03/06 03:42:39;;;;;;;65.35;10.15;;;-4.00;1.00;;;;;;5132650;27;20279;-66
2021/03/06 03:45:08;;;;;;;64.65;9.80;;;-4.00;1.00;;;;;;5132897;27;20203;-66
2021/03/06 03:47:38;;;;;;;71.63;9.07;;;-4.00;1.00;;;;;;5132789;27;20227;-67
2021/03/06 03:50:07;;;;;;;64.05;9.15;;;-4.10;1.00;;;;;;5133296;27;20248;-66
2021/03/06 03:52:36;;;;;;;65.85;9.40;;;-4.10;1.00;;;;;;5132612;27;20203;-66
2021/03/06 03:55:04;;;;;;;64.53;8.90;;;-4.10;1.00;;;;;;5132618;27;20199;-66
2021/03/06 03:57:31;;;;;;;65.75;8.95;;;-4.10;1.00;;;;;;5132553;27;20305;-66
2021/03/06 03:59:59;;;;;;;64.43;9.30;;;-4.10;1.00;;;;;;5132492;27;20233;-67
2021/03/06 04:02:27;;;;;;;67.82;9.80;;;-4.10;1.00;;;;;;5132598;27;20294;-67
2021/03/06 04:04:54;;;;;;;63.80;10.18;;;-4.20;1.00;;;;;;5132346;27;20207;-66
2021/03/06 04:07:20;;;;;;;67.70;11.57;;;-4.20;1.00;;;;;;5132524;27;20222;-67
2021/03/06 04:09:47;;;;;;;66.00;11.57;;;-4.20;1.00;;;;;;5132681;27;20249;-66
2021/03/06 04:12:13;;;;;;;65.55;9.85;;;-4.20;1.00;;;;;;5132488;27;20195;-66
2021/03/06 04:14:40;;;;;;;65.35;10.13;;;-4.20;1.00;;;;;;5132627;27;20584;-66
2021/03/06 04:17:06;;;;;;;68.20;10.38;;;-4.20;1.00;;;;;;5132445;27;20322;-66
2021/03/06 04:19:32;;;;;;;64.80;10.13;;;-4.30;1.00;;;;;;5132106;27;20222;-66
2021/03/06 04:22:00;;;;;;;67.25;11.30;;;-4.20;1.00;;;;;;5132352;27;20210;-66
2021/03/06 04:24:26;;;;;;;68.60;10.50;;;-4.30;1.00;;;;;;5132432;27;20199;-66
2021/03/06 04:26:53;;;;;;;67.63;11.35;;;-4.30;1.00;;;;;;5132391;27;20258;-66
2021/03/06 04:29:20;;;;;;;66.28;11.02;;;-4.30;1.00;;;;;;5132297;27;20206;-66
2021/03/06 04:31:47;;;;;;;64.68;10.02;;;-4.40;1.00;;;;;;5132303;27;20682;-67
2021/03/06 04:34:13;;;;;;;67.00;11.25;;;-4.40;1.00;;;;;;5132330;27;20198;-66
2021/03/06 04:36:40;;;;;;;67.45;12.23;;;-4.40;1.00;;;;;;5132073;27;20235;-66
2021/03/06 04:39:07;;;;;;;68.90;11.60;;;-4.40;1.00;;;;;;5132115;27;20258;-66
2021/03/06 04:41:34;;;;;;;66.85;10.68;;;-4.50;1.00;;;;;;5132264;27;20579;-66
2021/03/06 04:44:00;;;;;;;66.30;10.30;;;-4.50;1.00;;;;;;5132091;27;20202;-66
2021/03/06 04:46:27;;;;;;;67.10;11.05;;;-4.50;1.00;;;;;;5134927;27;20762;-67
2021/03/06 04:48:53;;;;;;;64.82;10.27;;;-4.50;1.00;;;;;;5136519;27;20229;-66
2021/03/06 04:51:20;;;;;;;67.00;10.98;;;-4.50;1.00;;;;;;5129614;27;20203;-66
2021/03/06 04:53:46;;;;;;;70.40;10.13;;;-4.50;1.00;;;;;;5136082;27;20203;-67
2021/03/06 04:56:13;;;;;;;63.35;9.25;;;-4.50;1.00;;;;;;5135954;27;20255;-66
2021/03/06 04:58:39;;;;;;;64.68;9.40;;;-4.50;1.00;;;;;;5135928;27;20230;-66
2021/03/06 05:01:06;;;;;;;65.65;10.00;;;-4.50;1.00;;;;;;5136042;27;20218;-67
2021/03/06 05:03:32;;;;;;;63.17;8.73;;;-4.50;1.00;;;;;;5136119;27;20202;-66
2021/03/06 05:05:59;;;;;;;69.65;10.93;;;-4.50;1.00;;;;;;5135892;27;20223;-67
2021/03/06 05:08:25;;;;;;;65.07;9.50;;;-4.50;1.00;;;;;;5135889;27;20202;-67
2021/03/06 05:10:51;;;;;;;65.95;9.75;;;-4.50;1.00;;;;;;5135971;27;20866;-66
2021/03/06 05:13:19;;;;;;;64.90;10.05;;;-4.50;1.00;;;;;;5135696;27;20293;-68
2021/03/06 05:15:45;;;;;;;63.03;9.23;;;-4.50;1.00;;;;;;5135530;27;20290;-66
2021/03/06 05:18:11;;;;;;;64.47;10.02;;;-4.60;1.00;;;;;;5135830;27;20312;-67
2021/03/06 05:20:38;;;;;;;62.40;7.95;;;-4.50;1.00;;;;;;5135854;27;20199;-67
2021/03/06 05:23:04;;;;;;;64.43;8.80;;;-4.60;1.00;;;;;;5135758;27;20657;-66
2021/03/06 05:25:30;;;;;;;64.50;8.82;;;-4.60;1.00;;;;;;5136015;27;20203;-67
2021/03/06 05:27:57;;;;;;;65.45;9.55;;;-4.70;1.00;;;;;;5135513;27;20259;-66
2021/03/06 05:30:25;;;;;;;61.83;8.38;;;-4.60;1.00;;;;;;5135260;27;20207;-66
2021/03/06 05:32:51;;;;;;;63.83;8.57;;;-4.70;1.00;;;;;;5135279;27;20694;-66
2021/03/06 05:35:17;;;;;;;64.47;9.85;;;-4.70;1.00;;;;;;5135496;27;20305;-66
2021/03/06 05:37:44;;;;;;;64.18;9.85;;;-4.70;1.00;;;;;;5135404;27;20252;-67
2021/03/06 05:40:11;;;;;;;65.15;9.50;;;-4.70;1.00;;;;;;5135166;27;20227;-66
2021/03/06 05:42:38;;;;;;;65.15;9.52;;;-4.70;1.00;;;;;;5135213;27;20300;-66
2021/03/06 05:45:07;;;;;;;68.90;9.48;;;-4.70;1.00;;;;;;5135035;27;20301;-67
2021/03/06 05:47:34;;;;;;;63.08;8.68;;;-4.80;1.00;;;;;;5134852;27;20239;-67
2021/03/06 05:50:02;;;;;;;65.90;10.13;;;-4.80;1.00;;;;;;5135217;27;20376;-66
2021/03/06 05:52:29;;;;;;;67.25;9.35;;;-4.80;1.00;;;;;;5135045;27;20621;-66
2021/03/06 05:54:59;;;;;;;63.88;8.90;;;-4.80;1.00;;;;;;5135071;27;20211;-66
2021/03/06 05:57:26;;;;;;;65.47;10.20;;;-4.80;1.00;;;;;;5134651;27;20222;-66
2021/03/06 05:59:52;;;;;;;65.30;9.73;;;-4.80;1.00;;;;;;5135067;27;20218;-67
2021/03/06 06:02:20;;;;;;;63.90;10.45;;;-4.80;1.00;;;;;;5134758;27;20203;-66
2021/03/06 06:04:47;;;;;;;62.92;8.55;;;-4.80;1.00;;;;;;5134948;27;20206;-67
2021/03/06 06:07:16;;;;;;;60.95;7.70;;;-4.80;1.00;;;;;;5134806;27;20261;-66
2021/03/06 06:09:43;;;;;;;63.90;10.30;;;-4.80;1.00;;;;;;5134574;27;20667;-66
2021/03/06 06:12:10;;;;;;;62.70;9.02;;;-4.70;1.00;;;;;;5134775;27;20202;-66
2021/03/06 06:14:37;;;;;;;63.80;9.13;;;-4.70;1.00;;;;;;5134810;27;20231;-66
2021/03/06 06:17:07;;;;;;;65.53;10.50;;;-4.70;1.00;;;;;;5134645;27;20695;-67
2021/03/06 06:19:34;;;;;;;66.45;10.32;;;-4.70;1.00;;;;;;5134414;27;20779;-67
2021/03/06 06:22:01;;;;;;;67.50;11.40;;;-4.70;1.00;;;;;;5134450;27;20294;-66
2021/03/06 06:24:28;;;;;;;64.57;9.23;;;-4.70;1.00;;;;;;5134299;27;20559;-67
2021/03/06 06:26:55;;;;;;;68.72;10.50;;;-4.70;1.00;;;;;;5134510;27;20222;-66
2021/03/06 06:29:37;;;;;;;66.50;10.23;;;-4.70;1.00;;;;;;5134417;27;20202;-66
2021/03/06 06:32:05;;;;;;;68.90;10.15;;;-4.60;1.00;;;;;;5128965;27;20290;-66
2021/03/06 06:34:31;;;;;;;63.17;8.85;;;-4.60;1.00;;;;;;5128734;27;20693;-67
2021/03/06 06:36:58;;;;;;;64.47;9.57;;;-4.60;1.00;;;;;;5133701;27;20318;-66
2021/03/06 06:39:32;;;;;;;63.53;9.75;;;-4.60;1.00;;;;;;5134142;27;20640;-66
2021/03/06 06:42:00;;;;;;;64.05;9.55;;;-4.50;1.00;;;;;;5134122;27;20646;-66
2021/03/06 06:44:30;;;;;;;66.93;12.05;;;-4.50;1.00;;;;;;5133943;27;20247;-66
2021/03/06 06:46:57;;;;;;;97.95;21.70;;;-4.40;1.00;;;;;;5133838;27;20787;-67
2021/03/06 06:49:24;;;;;;;138.95;40.03;;;-4.40;1.00;;;;;;5120061;27;20565;-66
2021/03/06 06:51:58;;;;;;;135.07;38.95;;;-4.30;1.00;;;;;;5129655;27;20207;-66
2021/03/06 06:54:25;;;;;;;82.55;18.95;;;-4.30;1.00;;;;;;5133648;27;20203;-67
2021/03/06 06:57:13;;;;;;;80.07;15.35;;;-4.20;1.00;;;;;;5133520;27;20300;-66
2021/03/06 06:59:40;;;;;;;74.85;14.70;;;-4.10;1.00;;;;;;5133609;27;20229;-66
2021/03/06 07:02:09;;;;;;;72.90;13.98;;;-4.10;1.00;;;;;;5133342;27;20294;-66
2021/03/06 07:04:46;;;;;;;68.25;11.35;;;-4.00;1.00;;;;;;5133873;27;20203;-66
2021/03/06 07:07:14;;;;;;;64.57;10.25;;;-3.90;1.00;;;;;;5133453;27;20244;-66
2021/03/06 07:10:04;;;;;;;66.75;11.38;;;-3.80;1.00;;;;;;5133065;27;20248;-66
2021/03/06 07:12:33;;;;;;;64.50;10.15;;;-3.70;1.00;;;;;;5133372;27;20956;-66
2021/03/06 07:15:01;;;;;;;67.45;12.00;;;-3.60;1.00;;;;;;5125595;27;20266;-66
2021/03/06 07:17:39;;;;;;;67.05;10.25;;;-3.50;1.00;;;;;;5129495;27;20748;-67
2021/03/06 07:20:08;;;;;;;68.88;13.52;;;-3.40;1.00;;;;;;5132042;27;20242;-66
2021/03/06 07:22:35;;;;;;;75.18;16.17;;;-3.40;1.00;;;;;;5133242;27;20286;-66
2021/03/06 07:25:01;;;;;;;71.95;15.30;;;-3.30;1.00;;;;;;5132041;27;20352;-66
2021/03/06 07:27:27;;;;;;;72.68;15.25;;;-3.20;1.00;;;;;;5133322;27;20733;-66
2021/03/06 07:29:55;;;;;;;72.47;14.90;;;-3.20;1.00;;;;;;5133290;27;20286;-66
2021/03/06 07:32:28;;;;;;;71.40;14.32;;;-3.10;1.00;;;;;;5133107;27;20214;-66
2021/03/06 07:35:04;;;;;;;69.55;11.35;;;-3.00;1.00;;;;;;5132993;27;20207;-66
2021/03/06 07:37:31;;;;;;;68.00;11.98;;;-2.90;1.00;;;;;;5132951;27;20294;-67
2021/03/06 07:40:01;;;;;;;67.10;13.27;;;-2.80;1.00;;;;;;5133123;27;20318;-67
2021/03/06 07:42:35;;;;;;;70.88;12.93;;;-2.70;1.00;;;;;;5133179;27;20585;-66
2021/03/06 07:45:04;;;;;;;70.40;12.15;;;-2.60;1.00;;;;;;5133158;27;20305;-66
2021/03/06 07:47:34;;;;;;;69.25;12.30;;;-2.50;1.00;;;;;;5132963;27;20227;-66
2021/03/06 07:50:01;;;;;;;66.72;11.82;;;-2.40;1.00;;;;;;5132701;27;20259;-66
2021/03/06 07:52:30;;;;;;;69.70;12.38;;;-2.30;1.00;;;;;;5132900;27;20310;-67
2021/03/06 07:54:58;;;;;;;67.22;11.77;;;-2.20;1.00;;;;;;5132886;27;20213;-67
2021/03/06 07:57:24;;;;;;;66.43;11.57;;;-2.10;1.00;;;;;;5132773;27;20219;-67
2021/03/06 07:59:52;;;;;;;64.30;10.63;;;-1.90;1.00;;;;;;5132391;27;20229;-67
2021/03/06 08:02:34;;;;;;;67.47;12.02;;;-1.80;1.00;;;;;;5131067;27;20675;-67
2021/03/06 08:05:00;;;;;;;67.43;12.10;;;-1.70;1.00;;;;;;5132256;27;20286;-67
2021/03/06 08:07:41;;;;;;;64.65;11.27;;;-1.60;1.00;;;;;;5132660;27;20219;-67
2021/03/06 08:10:09;;;;;;;65.20;11.13;;;-1.50;1.00;;;;;;5132623;27;20195;-67
2021/03/06 08:12:38;;;;;;;64.53;11.23;;;-1.40;1.00;;;;;;5132460;27;20252;-67
2021/03/06 08:15:27;;;;;;;65.82;11.20;;;-1.30;1.00;;;;;;5132467;27;20210;-67
2021/03/06 08:17:55;;;;;;;68.50;12.55;;;-1.20;1.00;;;;;;5132706;27;20676;-67
2021/03/06 08:20:23;;;;;;;67.03;10.70;;;-1.10;1.00;;;;;;5131537;27;20226;-67
2021/03/06 08:23:21;;;;;;;67.47;10.90;;;-1.00;1.00;;;;;;5132647;27;20203;-67
2021/03/06 08:25:49;;;;;;;66.22;10.90;;;-0.90;1.00;;;;;;5132600;27;20209;-67
2021/03/06 08:28:26;;;;;;;64.43;10.07;;;-0.80;1.00;;;;;;5132539;27;20298;-67
2021/03/06 08:30:53;;;;;;;63.53;9.98;;;-0.70;1.00;;;;;;5132775;27;20289;-67
2021/03/06 08:33:20;;;;;;;66.32;10.68;;;-0.60;1.00;;;;;;5132376;27;20202;-67
2021/03/06 08:35:47;;;;;;;66.68;10.35;;;-0.50;1.00;;;;;;5131930;27;20215;-66
2021/03/06 08:38:28;;;;;;;68.00;10.77;;;-0.40;1.00;;;;;;5132196;27;20298;-67
2021/03/06 08:40:55;;;;;;;60.58;8.25;;;-0.30;1.00;;;;;;5132499;27;20628;-68
2021/03/06 08:43:21;;;;;;;62.85;9.15;;;-0.10;1.00;;;;;;5132105;27;20214;-67
2021/03/06 08:45:48;;;;;;;64.88;9.35;;;0.00;1.00;;;;;;5132120;27;20227;-67
2021/03/06 08:48:15;;;;;;;63.90;8.88;;;0.10;1.00;;;;;;5132226;27;20616;-68
2021/03/06 08:50:43;;;;;;;64.45;8.90;;;0.30;1.00;;;;;;5132113;27;20701;-67
2021/03/06 08:53:14;;;;;;;64.90;9.48;;;0.50;1.00;;;;;;5132264;27;20211;-67
2021/03/06 08:55:42;;;;;;;66.32;8.23;;;0.60;1.00;;;;;;5132398;27;20203;-67
2021/03/06 08:58:10;;;;;;;64.30;8.93;;;0.70;1.00;;;;;;5132692;27;20207;-67
2021/03/06 09:00:40;;;;;;;61.20;7.53;;;0.90;1.00;;;;;;5132157;27;20199;-67
2021/03/06 09:03:15;;;;;;;62.42;8.85;;;1.00;1.00;;;;;;5132204;27;20615;-67
2021/03/06 09:05:43;;;;;;;61.80;8.10;;;1.10;1.00;;;;;;5131852;27;20242;-67
2021/03/06 09:08:10;;;;;;;63.40;8.05;;;1.20;1.00;;;;;;5132092;27;20202;-67
2021/03/06 09:10:38;;;;;;;63.03;8.07;;;1.30;1.00;;;;;;5131930;27;20693;-67
2021/03/06 09:13:11;;;;;;;63.00;8.60;;;1.50;1.00;;;;;;5131858;27;20355;-67
2021/03/06 09:15:43;;;;;;;60.88;7.45;;;1.60;1.00;;;;;;5132054;27;20207;-67
2021/03/06 09:18:12;;;;;;;61.00;5.95;;;1.70;1.00;;;;;;5132190;27;20630;-67
2021/03/06 09:20:42;;;;;;;62.33;7.97;;;1.80;1.00;;;;;;5131855;27;20282;-67
2021/03/06 09:23:09;;;;;;;62.05;8.50;;;1.90;1.00;;;;;;5131883;27;20203;-67
2021/03/06 09:25:38;;;;;;;65.47;7.40;;;2.00;1.00;;;;;;5125633;27;20214;-67
2021/03/06 09:28:08;;;;;;;59.47;6.70;;;2.20;1.00;;;;;;5123623;28;20203;-67
2021/03/06 09:30:37;;;;;;;63.30;8.02;;;2.30;1.00;;;;;;5127808;27;20203;-68
2021/03/06 09:33:04;;;;;;;59.75;7.03;;;2.40;1.00;;;;;;5122408;27;20618;-68
2021/03/06 09:35:31;;;;;;;60.55;7.20;;;2.60;1.00;;;;;;5130651;27;20283;-67
2021/03/06 09:38:12;;;;;;;59.85;6.47;;;2.70;1.00;;;;;;5127788;27;20227;-67
2021/03/06 09:40:44;;;;;;;60.17;7.18;;;2.90;1.00;;;;;;5132008;27;20230;-67
2021/03/06 09:43:12;;;;;;;60.13;6.03;;;3.00;1.00;;;;;;5135486;27;20264;-67
2021/03/06 09:45:39;;;;;;;61.13;6.90;;;3.20;1.00;;;;;;5134524;27;20210;-67
2021/03/06 09:48:11;;;;;;;61.25;6.85;;;3.30;1.00;;;;;;5129901;27;20214;-67
2021/03/06 09:50:38;;;;;;;60.30;6.90;;;3.50;1.00;;;;;;5135006;27;20627;-67
2021/03/06 09:53:20;;;;;;;60.85;6.75;;;3.60;1.00;;;;;;5116025;27;20238;-68
2021/03/06 09:55:47;;;;;;;60.15;6.53;;;3.80;1.00;;;;;;5128322;27;20203;-67
2021/03/06 09:58:20;;;;;;;60.47;6.50;;;4.00;1.00;;;;;;5133296;27;20701;-67
2021/03/06 10:00:47;;;;;;;62.35;7.30;;;4.20;1.00;;;;;;5135368;27;20203;-68
2021/03/06 10:03:28;;;;;;;58.78;5.72;;;4.30;1.00;;;;;;5134705;27;20247;-66
2021/03/06 10:05:57;;;;;;;60.33;5.65;;;4.70;1.00;;;;;;5134889;27;20306;-66
2021/03/06 10:08:25;;;;;;;60.58;6.80;;;5.90;1.00;;;;;;5134981;27;20203;-67
2021/03/06 10:10:52;;;;;;;61.43;6.10;;;7.70;1.00;;;;;;5134842;27;20221;-67
2021/03/06 10:13:19;;;;;;;60.80;6.20;;;9.10;1.00;;;;;;5134698;27;20946;-67
2021/03/06 10:15:46;;;;;;;60.63;6.07;;;10.30;1.00;;;;;;5134471;27;20447;-66
2021/03/06 10:18:13;;;;;;;59.67;6.07;;;11.30;1.00;;;;;;5134545;27;20486;-67
2021/03/06 10:20:39;;;;;;;59.40;6.30;;;12.50;1.00;;;;;;5134765;27;20480;-67
2021/03/06 10:23:06;;;;;;;59.30;5.30;;;13.40;1.00;;;;;;5134694;27;20981;-67
2021/03/06 10:25:33;;;;;;;59.80;6.00;;;14.10;1.00;;;;;;5134466;27;20445;-67
2021/03/06 10:28:10;;;;;;;58.77;5.13;;;14.70;1.00;;;;;;5134481;27;20448;-66
2021/03/06 10:30:39;;;;;;;60.90;5.77;;;15.10;1.00;;;;;;5134655;27;20491;-67
2021/03/06 10:33:18;;;;;;;58.37;5.30;;;15.40;1.00;;;;;;5134144;27;20452;-67
2021/03/06 10:35:48;;;;;;;58.03;5.00;;;15.30;1.00;;;;;;5134171;27;20457;-67
2021/03/06 10:38:24;;;;;;;60.00;6.00;;;15.10;1.00;;;;;;5134253;27;20499;-67
2021/03/06 10:40:55;;;;;;;57.90;5.13;;;15.20;1.00;;;;;;5134183;27;20449;-67
2021/03/06 10:43:30;;;;;;;58.60;5.03;;;15.20;1.00;;;;;;5133070;27;20535;-67
2021/03/06 10:46:07;;;;;;;58.20;5.40;;;15.40;1.00;;;;;;5134185;27;20499;-67
2021/03/06 10:48:34;;;;;;;59.97;5.30;;;15.50;1.00;;;;;;5134075;27;20456;-67
2021/03/06 10:51:00;;;;;;;59.17;5.50;;;15.90;1.00;;;;;;5133991;27;20991;-67
2021/03/06 10:53:28;;;;;;;69.90;12.13;;;16.40;1.00;;;;;;5133785;27;20899;-67
2021/03/06 10:55:55;;;;;;;75.60;18.50;;;16.50;1.00;;;;;;5133867;27;20471;-68
2021/03/06 10:58:41;;;;;;;58.67;5.20;;;16.90;1.00;;;;;;5129132;27;20485;-68
2021/03/06 11:01:07;;;;;;;61.37;8.60;;;18.00;1.00;;;;;;5128675;27;20508;-68
2021/03/06 11:03:40;;;;;;;59.17;5.80;;;18.30;1.00;;;;;;5127831;27;20470;-67
2021/03/06 11:06:07;;;;;;;59.37;6.30;;;18.60;1.00;;;;;;5120469;27;20472;-68
2021/03/06 11:08:33;;;;;;;59.63;6.50;;;19.10;1.00;;;;;;5131721;27;20448;-68
2021/03/06 11:11:01;;;;;;;59.37;6.00;;;19.60;1.00;;;;;;5133479;27;20441;-68
2021/03/06 11:13:39;;;;;;;58.10;5.47;;;20.10;1.00;;;;;;5133385;27;20586;-68
2021/03/06 11:16:05;;;;;;;59.80;6.83;;;20.20;1.00;;;;;;5125066;27;20470;-68
2021/03/06 11:18:32;;;;;;;58.90;5.13;;;20.30;1.00;;;;;;5133630;27;20452;-68
2021/03/06 11:20:59;;;;;;;59.30;6.23;;;20.30;1.00;;;;;;5133494;27;20494;-68
2021/03/06 11:23:25;;;;;;;57.60;5.50;;;20.40;1.00;;;;;;5133375;27;20793;-67
2021/03/06 11:25:51;;;;;;;59.33;5.03;;;20.40;1.00;;;;;;5133427;27;20874;-68
2021/03/06 11:28:19;;;;;;;58.30;4.90;;;20.70;1.00;;;;;;5133481;27;20449;-68
2021/03/06 11:30:47;;;;;;;62.60;5.90;;;21.40;1.00;;;;;;5130378;27;20831;-67
2021/03/06 11:33:15;;;;;;;59.40;5.30;;;21.90;1.00;;;;;;5131876;27;20521;-67
2021/03/06 11:35:42;;;;;;;57.93;5.17;;;22.20;1.00;;;;;;5132817;27;20467;-67
2021/03/06 11:38:10;;;;;;;58.23;4.77;;;22.40;1.00;;;;;;5133106;27;20993;-67
2021/03/06 11:40:39;;;;;;;58.03;5.00;;;22.50;1.00;;;;;;5133065;27;20989;-67
2021/03/06 11:43:06;;;;;;;58.00;4.80;;;22.80;1.00;;;;;;5128567;27;20458;-68
2021/03/06 11:45:34;;;;;;;58.83;5.20;;;23.10;1.00;;;;;;5129038;27;20921;-67
2021/03/06 11:48:01;;;;;;;58.90;4.87;;;23.60;1.00;;;;;;5130771;27;20448;-67
2021/03/06 11:50:29;;;;;;;57.83;4.63;;;24.00;1.00;;;;;;5129617;27;20444;-67
2021/03/06 11:52:57;;;;;;;58.30;4.97;;;23.90;1.00;;;;;;5129631;27;20448;-67
2021/03/06 11:55:23;;;;;;;57.57;4.20;;;24.70;1.00;;;;;;5126373;27;20561;-67
2021/03/06 11:57:49;;;;;;;58.73;4.20;;;25.40;1.00;;;;;;5132489;27;20566;-68
2021/03/06 12:00:18;;;;;;;57.27;4.10;;;25.10;1.00;;;;;;5132691;27;20842;-67
2021/03/06 12:02:45;;;;;;;58.00;4.40;;;25.70;1.00;;;;;;5132258;27;20446;-67
2021/03/06 12:05:13;;;;;;;58.63;4.40;;;26.40;1.00;;;;;;5132558;27;20445;-68
2021/03/06 12:07:40;;;;;;;57.40;4.40;;;27.00;1.00;;;;;;5132597;27;20556;-67
2021/03/06 12:10:08;;;;;;;57.10;4.13;;;27.40;1.00;;;;;;5132591;27;20439;-67
2021/03/06 12:12:35;;;;;;;57.27;4.30;;;27.70;1.00;;;;;;5132312;27;20443;-67
2021/03/06 12:15:02;;;;;;;57.57;4.07;;;27.80;1.00;;;;;;5132698;27;20442;-68
2021/03/06 12:17:29;;;;;;;57.63;4.17;;;28.10;1.00;;;;;;5132621;27;20472;-67
2021/03/06 12:19:56;;;;;;;57.97;4.23;;;28.40;1.00;;;;;;5132356;27;20472;-67
2021/03/06 12:22:23;;;;;;;57.17;4.30;;;27.80;1.00;;;;;;5132425;27;20499;-67
2021/03/06 12:24:49;;;;;;;56.87;4.20;;;27.00;1.00;;;;;;5122941;27;20532;-68
2021/03/06 12:27:15;;;;;;;57.77;4.00;;;26.60;1.00;;;;;;5132214;27;20470;-68
2021/03/06 12:29:42;;;;;;;59.00;4.23;;;26.30;1.00;;;;;;5132281;27;20441;-67
2021/03/06 12:32:09;;;;;;;56.67;3.77;;;25.80;1.00;;;;;;5132771;27;20448;-67
2021/03/06 12:34:35;;;;;;;56.60;3.90;;;26.10;1.00;;;;;;5132533;27;20524;-68
2021/03/06 12:37:03;;;;;;;57.50;4.20;;;26.60;1.00;;;;;;5132052;27;20481;-68
2021/03/06 12:39:29;;;;;;;57.30;4.00;;;27.10;1.00;;;;;;5132076;27;20524;-68
2021/03/06 12:41:56;;;;;;;57.63;4.60;;;27.60;1.00;;;;;;5132181;27;20446;-68
2021/03/06 12:44:22;;;;;;;57.17;4.17;;;28.50;1.00;;;;;;5132680;27;20440;-68
2021/03/06 12:46:49;;;;;;;57.77;4.20;;;29.30;1.00;;;;;;5132287;27;20560;-68
2021/03/06 12:49:16;;;;;;;58.00;3.87;;;29.70;1.00;;;;;;5132321;27;20443;-68
2021/03/06 12:51:43;;;;;;;57.03;4.00;;;29.50;1.00;;;;;;5132209;27;20441;-68